createdAt,value
2023-05-09T00:00:23.130Z,1010.06
2023-05-09T00:01:23.124Z,1010.11
2023-05-09T00:02:23.186Z,1010.09
2023-05-09T00:03:23.123Z,1010.08
2023-05-09T00:04:23.115Z,1010.04
2023-05-09T00:05:23.101Z,1010.03
2023-05-09T00:06:23.097Z,1010.06
2023-05-09T00:07:23.067Z,1010.02
2023-05-09T00:08:23.046Z,1010.07
2023-05-09T00:09:23.107Z,1010.08
2023-05-09T00:10:22.998Z,1010.06
2023-05-09T00:11:23.015Z,1010.03
2023-05-09T00:12:23.005Z,1010.11
2023-05-09T00:13:23.066Z,1010.07
2023-05-09T00:14:22.994Z,1010.05
2023-05-09T00:15:22.944Z,1010.06
2023-05-09T00:16:23.311Z,1010.04
2023-05-09T00:17:22.992Z,1010.08
2023-05-09T00:18:22.935Z,1010.08
2023-05-09T00:19:22.927Z,1010.02
2023-05-09T00:20:22.924Z,1010.03
2023-05-09T00:21:22.872Z,1010.00
2023-05-09T00:22:22.878Z,1010.02
2023-05-09T00:23:22.933Z,1010.01
2023-05-09T00:24:22.858Z,1010.00
2023-05-09T00:25:22.872Z,1009.99
2023-05-09T00:26:22.862Z,1010.00
2023-05-09T00:27:22.833Z,1010.02
2023-05-09T00:28:22.793Z,1010.00
2023-05-09T00:29:22.817Z,1009.99
2023-05-09T00:30:22.824Z,1009.98
2023-05-09T00:31:22.815Z,1010.00
2023-05-09T00:32:22.807Z,1009.98
2023-05-09T00:33:22.753Z,1009.95
2023-05-09T00:34:22.761Z,1009.92
2023-05-09T00:35:22.785Z,1009.88
2023-05-09T00:36:22.733Z,1009.90
2023-05-09T00:37:22.758Z,1009.92
2023-05-09T00:38:22.763Z,1009.92
2023-05-09T00:39:22.728Z,1009.86
2023-05-09T00:40:22.754Z,1009.85
2023-05-09T00:41:22.687Z,1009.85
2023-05-09T00:42:22.705Z,1009.84
2023-05-09T00:43:22.641Z,1009.82
2023-05-09T00:44:22.626Z,1009.82
2023-05-09T00:45:22.672Z,1009.79
2023-05-09T00:46:22.626Z,1009.76
2023-05-09T00:47:22.785Z,1009.75
2023-05-09T00:48:22.611Z,1009.74
2023-05-09T00:49:22.633Z,1009.73
2023-05-09T00:50:22.571Z,1009.69
2023-05-09T00:51:22.561Z,1009.66
2023-05-09T00:52:22.520Z,1009.63
2023-05-09T00:53:22.533Z,1009.59
2023-05-09T00:54:22.514Z,1009.55
2023-05-09T00:55:22.530Z,1009.54
2023-05-09T00:56:22.504Z,1009.54
2023-05-09T00:57:22.536Z,1009.50
2023-05-09T00:58:22.485Z,1009.54
2023-05-09T00:59:22.486Z,1009.48
2023-05-09T01:00:22.489Z,1009.48
2023-05-09T01:01:22.616Z,1009.45
2023-05-09T01:02:22.498Z,1009.45
2023-05-09T01:03:22.510Z,1009.42
2023-05-09T01:04:22.404Z,1009.41
2023-05-09T01:05:22.389Z,1009.39
2023-05-09T01:06:22.368Z,1009.39
2023-05-09T01:07:22.377Z,1009.39
2023-05-09T01:08:22.347Z,1009.35
2023-05-09T01:09:22.391Z,1009.39
2023-05-09T01:10:22.339Z,1009.34
2023-05-09T01:11:22.341Z,1009.37
2023-05-09T01:12:22.323Z,1009.37
2023-05-09T01:13:22.408Z,1009.37
2023-05-09T01:14:22.317Z,1009.42
2023-05-09T01:15:22.296Z,1009.40
2023-05-09T01:16:22.381Z,1009.40
2023-05-09T01:17:22.295Z,1009.37
2023-05-09T01:18:22.350Z,1009.37
2023-05-09T01:19:22.286Z,1009.35
2023-05-09T01:20:22.250Z,1009.33
2023-05-09T01:21:22.204Z,1009.30
2023-05-09T01:22:22.209Z,1009.28
2023-05-09T01:23:22.245Z,1009.25
2023-05-09T01:24:22.276Z,1009.27
2023-05-09T01:25:22.229Z,1009.23
2023-05-09T01:26:22.192Z,1009.25
2023-05-09T01:27:22.157Z,1009.23
2023-05-09T01:28:22.161Z,1009.23
2023-05-09T01:29:22.139Z,1009.24
2023-05-09T01:30:22.108Z,1009.21
2023-05-09T01:31:22.139Z,1009.22
2023-05-09T01:32:22.162Z,1009.21
2023-05-09T01:33:22.086Z,1009.21
2023-05-09T01:34:22.125Z,1009.18
2023-05-09T01:35:22.083Z,1009.17
2023-05-09T01:36:22.086Z,1009.14
2023-05-09T01:37:22.030Z,1009.12
2023-05-09T01:38:22.096Z,1009.11
2023-05-09T01:39:22.023Z,1009.07
2023-05-09T01:40:22.031Z,1009.10
2023-05-09T01:41:22.000Z,1009.10
2023-05-09T01:42:21.996Z,1009.08
2023-05-09T01:43:21.978Z,1009.09
2023-05-09T01:44:21.977Z,1009.08
2023-05-09T01:45:21.957Z,1009.04
2023-05-09T01:46:21.989Z,1009.08
2023-05-09T01:47:21.952Z,1009.07
2023-05-09T01:48:21.961Z,1009.06
2023-05-09T01:49:21.960Z,1009.04
2023-05-09T01:50:21.969Z,1009.06
2023-05-09T01:51:21.917Z,1009.06
2023-05-09T01:52:21.899Z,1009.06
2023-05-09T01:53:21.869Z,1009.07
2023-05-09T01:54:21.886Z,1009.07
2023-05-09T01:55:21.863Z,1009.05
2023-05-09T01:56:21.880Z,1009.05
2023-05-09T01:57:21.896Z,1009.04
2023-05-09T01:58:21.809Z,1009.00
2023-05-09T01:59:21.811Z,1009.01
2023-05-09T02:00:21.855Z,1009.04
2023-05-09T02:01:21.838Z,1009.03
2023-05-09T02:03:25.238Z,1009.11
2023-05-09T02:04:25.139Z,1009.07
2023-05-09T02:05:25.090Z,1009.08
2023-05-09T02:06:25.099Z,1009.07
2023-05-09T02:07:25.076Z,1009.06
2023-05-09T02:08:25.080Z,1009.06
2023-05-09T02:09:25.096Z,1009.03
2023-05-09T02:10:25.074Z,1009.06
2023-05-09T02:11:25.025Z,1009.02
2023-05-09T02:12:25.071Z,1009.04
2023-05-09T02:13:25.181Z,1008.98
2023-05-09T02:14:24.998Z,1008.95
2023-05-09T02:15:25.019Z,1009.02
2023-05-09T02:16:25.041Z,1008.98
2023-05-09T02:17:24.978Z,1008.96
2023-05-09T02:18:25.039Z,1008.96
2023-05-09T02:19:24.960Z,1008.91
2023-05-09T02:20:24.944Z,1008.93
2023-05-09T02:21:25.621Z,1008.98
2023-05-09T02:22:24.925Z,1008.95
2023-05-09T02:23:24.911Z,1008.93
2023-05-09T02:24:24.904Z,1008.94
2023-05-09T02:25:24.908Z,1008.93
2023-05-09T02:26:24.884Z,1008.96
2023-05-09T02:27:24.876Z,1008.90
2023-05-09T02:28:24.862Z,1008.90
2023-05-09T02:29:24.848Z,1008.93
2023-05-09T02:30:24.840Z,1008.87
2023-05-09T02:31:24.812Z,1008.88
2023-05-09T02:32:24.863Z,1008.88
2023-05-09T02:33:24.794Z,1008.87
2023-05-09T02:34:24.793Z,1008.85
2023-05-09T02:35:24.765Z,1008.86
2023-05-09T02:36:24.785Z,1008.82
2023-05-09T02:37:24.761Z,1008.87
2023-05-09T02:38:24.756Z,1008.80
2023-05-09T02:39:24.732Z,1008.79
2023-05-09T02:40:24.721Z,1008.79
2023-05-09T02:41:24.735Z,1008.73
2023-05-09T02:42:24.707Z,1008.73
2023-05-09T02:43:24.696Z,1008.75
2023-05-09T02:44:24.712Z,1008.72
2023-05-09T02:45:24.682Z,1008.72
2023-05-09T02:46:24.717Z,1008.71
2023-05-09T02:47:24.668Z,1008.72
2023-05-09T02:48:24.689Z,1008.73
2023-05-09T02:49:32.103Z,1008.73
2023-05-09T02:50:25.618Z,1008.74
2023-05-09T02:51:24.633Z,1008.74
2023-05-09T02:52:24.618Z,1008.76
2023-05-09T02:53:24.567Z,1008.69
2023-05-09T02:54:24.615Z,1008.70
2023-05-09T02:55:24.588Z,1008.72
2023-05-09T02:56:24.556Z,1008.69
2023-05-09T02:57:24.526Z,1008.68
2023-05-09T02:58:24.544Z,1008.66
2023-05-09T02:59:24.500Z,1008.65
2023-05-09T03:00:24.488Z,1008.64
2023-05-09T03:01:24.541Z,1008.58
2023-05-09T03:02:24.588Z,1008.61
2023-05-09T03:03:24.564Z,1008.58
2023-05-09T03:04:24.504Z,1008.57
2023-05-09T03:05:24.471Z,1008.57
2023-05-09T03:06:24.455Z,1008.60
2023-05-09T03:07:24.444Z,1008.66
2023-05-09T03:08:24.435Z,1008.71
2023-05-09T03:09:24.402Z,1008.68
2023-05-09T03:10:24.403Z,1008.75
2023-05-09T03:11:24.386Z,1008.79
2023-05-09T03:12:24.416Z,1008.77
2023-05-09T03:13:24.389Z,1008.74
2023-05-09T03:14:24.393Z,1008.74
2023-05-09T03:15:24.357Z,1008.68
2023-05-09T03:16:24.477Z,1008.69
2023-05-09T03:17:24.465Z,1008.71
2023-05-09T03:18:24.321Z,1008.68
2023-05-09T03:19:24.294Z,1008.70
2023-05-09T03:20:24.470Z,1008.69
2023-05-09T03:21:24.280Z,1008.70
2023-05-09T03:22:24.291Z,1008.70
2023-05-09T03:23:24.264Z,1008.64
2023-05-09T03:24:24.272Z,1008.65
2023-05-09T03:25:24.247Z,1008.67
2023-05-09T03:26:24.269Z,1008.63
2023-05-09T03:27:24.215Z,1008.61
2023-05-09T03:28:24.224Z,1008.66
2023-05-09T03:29:24.211Z,1008.64
2023-05-09T03:30:24.212Z,1008.61
2023-05-09T03:31:24.227Z,1008.68
2023-05-09T03:32:24.273Z,1008.65
2023-05-09T03:33:24.150Z,1008.67
2023-05-09T03:34:24.185Z,1008.70
2023-05-09T03:35:24.152Z,1008.65
2023-05-09T03:36:24.137Z,1008.64
2023-05-09T03:37:26.253Z,1008.64
2023-05-09T03:38:24.119Z,1008.62
2023-05-09T03:39:24.098Z,1008.63
2023-05-09T03:40:24.104Z,1008.56
2023-05-09T03:41:24.062Z,1008.63
2023-05-09T03:42:24.071Z,1008.59
2023-05-09T03:43:24.031Z,1008.54
2023-05-09T03:44:24.109Z,1008.54
2023-05-09T03:45:24.024Z,1008.51
2023-05-09T03:46:24.131Z,1008.57
2023-05-09T03:47:24.002Z,1008.52
2023-05-09T03:48:24.026Z,1008.50
2023-05-09T03:49:23.973Z,1008.51
2023-05-09T03:50:23.969Z,1008.47
2023-05-09T03:51:24.005Z,1008.50
2023-05-09T03:52:23.957Z,1008.48
2023-05-09T03:53:23.953Z,1008.50
2023-05-09T03:54:23.966Z,1008.52
2023-05-09T03:55:23.915Z,1008.51
2023-05-09T03:56:23.903Z,1008.47
2023-05-09T03:57:23.900Z,1008.47
2023-05-09T03:58:23.904Z,1008.51
2023-05-09T03:59:23.865Z,1008.44
2023-05-09T04:00:23.865Z,1008.45
2023-05-09T04:01:23.870Z,1008.40
2023-05-09T04:02:24.005Z,1008.38
2023-05-09T04:03:23.866Z,1008.38
2023-05-09T04:04:23.835Z,1008.40
2023-05-09T04:05:23.822Z,1008.38
2023-05-09T04:06:23.820Z,1008.38
2023-05-09T04:07:23.793Z,1008.41
2023-05-09T04:08:23.791Z,1008.37
2023-05-09T04:09:23.771Z,1008.37
2023-05-09T04:10:23.783Z,1008.38
2023-05-09T04:11:23.749Z,1008.36
2023-05-09T04:12:23.757Z,1008.38
2023-05-09T04:13:23.779Z,1008.34
2023-05-09T04:14:23.728Z,1008.38
2023-05-09T04:15:23.718Z,1008.34
2023-05-09T04:16:23.756Z,1008.38
2023-05-09T04:17:23.713Z,1008.39
2023-05-09T04:18:23.705Z,1008.37
2023-05-09T04:19:23.661Z,1008.37
2023-05-09T04:20:23.691Z,1008.35
2023-05-09T04:21:23.631Z,1008.30
2023-05-09T04:22:23.725Z,1008.27
2023-05-09T04:23:23.617Z,1008.25
2023-05-09T04:24:23.619Z,1008.26
2023-05-09T04:25:23.606Z,1008.24
2023-05-09T04:26:23.590Z,1008.28
2023-05-09T04:27:23.568Z,1008.25
2023-05-09T04:28:23.565Z,1008.23
2023-05-09T04:29:23.548Z,1008.26
2023-05-09T04:30:23.592Z,1008.25
2023-05-09T04:31:23.595Z,1008.22
2023-05-09T04:32:23.556Z,1008.29
2023-05-09T04:33:23.506Z,1008.26
2023-05-09T04:34:23.508Z,1008.30
2023-05-09T04:35:23.574Z,1008.28
2023-05-09T04:36:23.477Z,1008.27
2023-05-09T04:37:23.491Z,1008.24
2023-05-09T04:38:23.459Z,1008.25
2023-05-09T04:39:23.477Z,1008.23
2023-05-09T04:40:25.438Z,1008.21
2023-05-09T04:41:23.421Z,1008.20
2023-05-09T04:42:23.412Z,1008.14
2023-05-09T04:43:23.403Z,1008.15
2023-05-09T04:44:23.441Z,1008.17
2023-05-09T04:45:23.426Z,1008.17
2023-05-09T04:46:25.651Z,1008.17
2023-05-09T04:47:23.359Z,1008.17
2023-05-09T04:48:23.356Z,1008.14
2023-05-09T04:49:23.344Z,1008.16
2023-05-09T04:50:23.314Z,1008.09
2023-05-09T04:51:23.315Z,1008.07
2023-05-09T04:52:23.350Z,1008.09
2023-05-09T04:53:23.388Z,1008.04
2023-05-09T04:54:23.272Z,1008.09
2023-05-09T04:55:23.274Z,1008.04
2023-05-09T04:56:23.271Z,1007.98
2023-05-09T04:57:23.265Z,1008.04
2023-05-09T04:58:23.233Z,1007.98
2023-05-09T04:59:23.249Z,1007.99
2023-05-09T05:00:23.223Z,1007.96
2023-05-09T05:01:23.255Z,1007.96
2023-05-09T05:02:23.310Z,1008.02
2023-05-09T05:03:23.194Z,1008.04
2023-05-09T05:04:23.180Z,1008.03
2023-05-09T05:05:25.263Z,1008.03
2023-05-09T05:06:23.148Z,1008.01
2023-05-09T05:07:23.148Z,1008.04
2023-05-09T05:08:23.127Z,1008.01
2023-05-09T05:09:25.326Z,1007.99
2023-05-09T05:10:23.108Z,1008.03
2023-05-09T05:11:23.113Z,1007.98
2023-05-09T05:12:23.094Z,1007.99
2023-05-09T05:13:23.120Z,1007.96
2023-05-09T05:14:23.060Z,1007.93
2023-05-09T05:15:23.063Z,1007.90
2023-05-09T05:16:23.086Z,1007.89
2023-05-09T05:17:23.144Z,1007.87
2023-05-09T05:18:23.047Z,1007.85
2023-05-09T05:19:23.022Z,1007.89
2023-05-09T05:20:23.006Z,1007.88
2023-05-09T05:21:23.007Z,1007.82
2023-05-09T05:22:22.994Z,1007.85
2023-05-09T05:23:23.005Z,1007.79
2023-05-09T05:24:23.046Z,1007.79
2023-05-09T05:25:22.963Z,1007.82
2023-05-09T05:26:22.935Z,1007.83
2023-05-09T05:27:22.954Z,1007.78
2023-05-09T05:28:22.916Z,1007.81
2023-05-09T05:29:22.952Z,1007.79
2023-05-09T05:30:22.904Z,1007.81
2023-05-09T05:31:22.989Z,1007.81
2023-05-09T05:32:22.880Z,1007.78
2023-05-09T05:33:22.872Z,1007.78
2023-05-09T05:34:22.889Z,1007.81
2023-05-09T05:35:22.918Z,1007.80
2023-05-09T05:36:22.841Z,1007.77
2023-05-09T05:37:22.846Z,1007.73
2023-05-09T05:38:22.802Z,1007.76
2023-05-09T05:39:22.810Z,1007.72
2023-05-09T05:40:22.790Z,1007.77
2023-05-09T05:41:22.816Z,1007.74
2023-05-09T05:42:22.781Z,1007.71
2023-05-09T05:43:22.791Z,1007.69
2023-05-09T05:44:22.747Z,1007.73
2023-05-09T05:45:22.765Z,1007.75
2023-05-09T05:46:22.841Z,1007.78
2023-05-09T05:47:22.757Z,1007.73
2023-05-09T05:48:22.731Z,1007.73
2023-05-09T05:49:22.693Z,1007.72
2023-05-09T05:50:22.700Z,1007.71
2023-05-09T05:51:22.671Z,1007.72
2023-05-09T05:52:22.686Z,1007.68
2023-05-09T05:53:22.663Z,1007.67
2023-05-09T05:54:22.616Z,1007.67
2023-05-09T05:55:22.675Z,1007.66
2023-05-09T05:56:22.624Z,1007.60
2023-05-09T05:57:22.633Z,1007.66
2023-05-09T05:58:22.615Z,1007.62
2023-05-09T05:59:22.613Z,1007.62
2023-05-09T06:00:22.553Z,1007.59
2023-05-09T06:01:22.557Z,1007.55
2023-05-09T06:02:22.589Z,1007.59
2023-05-09T06:03:22.685Z,1007.51
2023-05-09T06:04:22.595Z,1007.60
2023-05-09T06:05:22.511Z,1007.59
2023-05-09T06:06:22.484Z,1007.47
2023-05-09T06:07:22.516Z,1007.48
2023-05-09T06:08:22.472Z,1007.46
2023-05-09T06:09:22.474Z,1007.44
2023-05-09T06:10:22.440Z,1007.37
2023-05-09T06:11:22.481Z,1007.39
2023-05-09T06:12:22.436Z,1007.41
2023-05-09T06:13:22.575Z,1007.35
2023-05-09T06:14:22.444Z,1007.35
2023-05-09T06:15:22.412Z,1007.31
2023-05-09T06:16:22.411Z,1007.29
2023-05-09T06:17:22.379Z,1007.29
2023-05-09T06:18:22.363Z,1007.30
2023-05-09T06:19:22.365Z,1007.29
2023-05-09T06:20:22.368Z,1007.28
2023-05-09T06:21:22.339Z,1007.28
2023-05-09T06:22:22.327Z,1007.28
2023-05-09T06:23:22.345Z,1007.27
2023-05-09T06:24:34.464Z,1007.27
2023-05-09T06:25:23.319Z,1007.26
2023-05-09T06:26:22.304Z,1007.25
2023-05-09T06:27:22.313Z,1007.30
2023-05-09T06:28:22.257Z,1007.28
2023-05-09T06:29:22.237Z,1007.22
2023-05-09T06:30:26.257Z,1007.18
2023-05-09T06:31:24.139Z,1007.20
2023-05-09T06:32:22.300Z,1007.13
2023-05-09T06:33:22.214Z,1007.18
2023-05-09T06:34:22.204Z,1007.12
2023-05-09T06:35:22.290Z,1007.19
2023-05-09T06:36:22.165Z,1007.12
2023-05-09T06:37:22.162Z,1007.13
2023-05-09T06:38:22.171Z,1007.15
2023-05-09T06:39:22.157Z,1007.11
2023-05-09T06:40:22.130Z,1007.10
2023-05-09T06:41:22.139Z,1007.04
2023-05-09T06:42:22.115Z,1007.07
2023-05-09T06:43:22.111Z,1007.04
2023-05-09T06:44:22.081Z,1007.01
2023-05-09T06:45:22.113Z,1007.01
2023-05-09T06:46:22.184Z,1007.01
2023-05-09T06:47:22.065Z,1006.96
2023-05-09T06:48:22.036Z,1006.96
2023-05-09T06:49:22.047Z,1006.94
2023-05-09T06:50:22.016Z,1006.96
2023-05-09T06:51:22.041Z,1006.94
2023-05-09T06:52:22.009Z,1006.91
2023-05-09T06:53:22.041Z,1006.89
2023-05-09T06:54:21.972Z,1006.89
2023-05-09T06:55:21.978Z,1006.90
2023-05-09T06:56:22.122Z,1006.87
2023-05-09T06:57:21.954Z,1006.88
2023-05-09T06:58:21.940Z,1006.86
2023-05-09T06:59:21.949Z,1006.87
2023-05-09T07:00:21.927Z,1006.91
2023-05-09T07:01:21.977Z,1006.87
2023-05-09T07:02:21.908Z,1006.86
2023-05-09T07:03:21.903Z,1006.77
2023-05-09T07:04:21.885Z,1006.78
2023-05-09T07:05:21.959Z,1006.76
2023-05-09T07:06:21.870Z,1006.75
2023-05-09T07:07:21.853Z,1006.73
2023-05-09T07:08:21.824Z,1006.74
2023-05-09T07:09:21.844Z,1006.71
2023-05-09T07:10:21.796Z,1006.75
2023-05-09T07:11:21.824Z,1006.68
2023-05-09T07:12:21.794Z,1006.68
2023-05-09T07:13:21.827Z,1006.68
2023-05-09T07:14:21.776Z,1006.62
2023-05-09T07:15:36.796Z,1006.62
2023-05-09T07:16:22.833Z,1006.60
2023-05-09T07:17:23.878Z,1006.65
2023-05-09T07:18:21.723Z,1006.62
2023-05-09T07:19:23.795Z,1006.56
2023-05-09T07:20:21.773Z,1006.56
2023-05-09T07:21:21.768Z,1006.54
2023-05-09T07:22:21.791Z,1006.54
2023-05-09T07:23:21.735Z,1006.51
2023-05-09T07:24:21.739Z,1006.49
2023-05-09T07:25:21.664Z,1006.38
2023-05-09T07:26:21.644Z,1006.45
2023-05-09T07:27:21.807Z,1006.40
2023-05-09T07:28:21.625Z,1006.39
2023-05-09T07:29:21.652Z,1006.38
2023-05-09T07:30:21.634Z,1006.39
2023-05-09T07:31:21.728Z,1006.39
2023-05-09T07:32:21.674Z,1006.41
2023-05-09T07:33:21.624Z,1006.35
2023-05-09T07:34:21.546Z,1006.34
2023-05-09T07:35:21.571Z,1006.43
2023-05-09T07:36:22.717Z,1006.37
2023-05-09T07:37:21.539Z,1006.34
2023-05-09T07:38:21.517Z,1006.32
2023-05-09T07:39:21.527Z,1006.30
2023-05-09T07:40:21.507Z,1006.33
2023-05-09T07:41:21.585Z,1006.29
2023-05-09T07:42:21.582Z,1006.33
2023-05-09T07:43:21.466Z,1006.27
2023-05-09T07:44:21.443Z,1006.24
2023-05-09T07:45:23.771Z,1006.22
2023-05-09T07:46:21.511Z,1006.21
2023-05-09T07:47:21.436Z,1006.18
2023-05-09T07:48:21.392Z,1006.19
2023-05-09T07:49:21.395Z,1006.18
2023-05-09T07:50:21.383Z,1006.15
2023-05-09T07:51:21.383Z,1006.15
2023-05-09T07:52:21.373Z,1006.21
2023-05-09T07:53:21.345Z,1006.24
2023-05-09T07:54:21.339Z,1006.24
2023-05-09T07:55:21.325Z,1006.18
2023-05-09T07:56:21.327Z,1006.18
2023-05-09T07:57:21.334Z,1006.18
2023-05-09T07:58:21.376Z,1006.13
2023-05-09T07:59:21.287Z,1006.06
2023-05-09T08:00:21.282Z,1006.12
2023-05-09T08:01:21.277Z,1006.11
2023-05-09T08:02:22.021Z,1006.10
2023-05-09T08:03:28.301Z,1006.14
2023-05-09T08:04:21.266Z,1006.11
2023-05-09T08:05:22.932Z,1006.09
2023-05-09T08:06:21.215Z,1006.09
2023-05-09T08:07:21.227Z,1006.05
2023-05-09T08:08:21.183Z,1005.99
2023-05-09T08:09:21.170Z,1006.00
2023-05-09T08:10:21.160Z,1005.98
2023-05-09T08:11:21.164Z,1005.94
2023-05-09T08:12:21.125Z,1005.94
2023-05-09T08:13:21.239Z,1005.92
2023-05-09T08:14:21.118Z,1005.91
2023-05-09T08:15:21.110Z,1005.89
2023-05-09T08:16:21.168Z,1005.94
2023-05-09T08:17:21.119Z,1006.01
2023-05-09T08:18:21.091Z,1005.92
2023-05-09T08:19:21.104Z,1005.90
2023-05-09T08:20:21.054Z,1005.96
2023-05-09T08:21:22.264Z,1005.92
2023-05-09T08:22:21.035Z,1005.88
2023-05-09T08:23:21.043Z,1005.92
2023-05-09T08:24:21.008Z,1005.93
2023-05-09T08:25:21.028Z,1005.97
2023-05-09T08:26:20.978Z,1005.86
2023-05-09T08:27:20.985Z,1005.86
2023-05-09T08:28:20.956Z,1005.78
2023-05-09T08:29:21.098Z,1005.81
2023-05-09T08:30:20.967Z,1005.77
2023-05-09T08:31:20.973Z,1005.67
2023-05-09T08:32:20.976Z,1005.73
2023-05-09T08:33:20.921Z,1005.71
2023-05-09T08:34:20.920Z,1005.70
2023-05-09T08:35:20.892Z,1005.69
2023-05-09T08:36:20.894Z,1005.70
2023-05-09T08:37:20.883Z,1005.65
2023-05-09T08:38:20.872Z,1005.68
2023-05-09T08:39:20.887Z,1005.65
2023-05-09T08:40:20.843Z,1005.58
2023-05-09T08:41:20.924Z,1005.57
2023-05-09T08:42:20.828Z,1005.57
2023-05-09T08:43:20.819Z,1005.48
2023-05-09T08:44:20.793Z,1005.49
2023-05-09T08:45:20.810Z,1005.50
2023-05-09T08:46:20.804Z,1005.49
2023-05-09T08:47:20.791Z,1005.53
2023-05-09T08:48:20.751Z,1005.42
2023-05-09T08:49:20.767Z,1005.48
2023-05-09T08:50:20.760Z,1005.52
2023-05-09T08:51:20.716Z,1005.52
2023-05-09T08:52:20.708Z,1005.48
2023-05-09T08:53:20.693Z,1005.54
2023-05-09T08:54:22.677Z,1005.49
2023-05-09T08:55:20.675Z,1005.49
2023-05-09T08:56:20.674Z,1005.44
2023-05-09T08:57:20.655Z,1005.41
2023-05-09T08:58:20.655Z,1005.45
2023-05-09T08:59:20.633Z,1005.42
2023-05-09T09:00:21.260Z,1005.42
2023-05-09T09:01:20.702Z,1005.43
2023-05-09T09:02:20.609Z,1005.42
2023-05-09T09:03:20.592Z,1005.41
2023-05-09T09:04:20.637Z,1005.40
2023-05-09T09:05:39.902Z,1005.40
2023-05-09T09:06:21.562Z,1005.36
2023-05-09T09:07:20.537Z,1005.36
2023-05-09T09:08:20.533Z,1005.32
2023-05-09T09:09:20.511Z,1005.31
2023-05-09T09:10:20.568Z,1005.24
2023-05-09T09:11:20.504Z,1005.18
2023-05-09T09:12:20.500Z,1005.26
2023-05-09T09:13:20.550Z,1005.22
2023-05-09T09:14:20.473Z,1005.29
2023-05-09T09:15:20.469Z,1005.26
2023-05-09T09:16:20.524Z,1005.25
2023-05-09T09:17:20.453Z,1005.18
2023-05-09T09:18:20.435Z,1005.15
2023-05-09T09:19:20.418Z,1005.18
2023-05-09T09:20:20.492Z,1005.17
2023-05-09T09:21:20.414Z,1005.14
2023-05-09T09:22:20.397Z,1005.18
2023-05-09T09:23:20.362Z,1005.17
2023-05-09T09:24:20.385Z,1005.15
2023-05-09T09:25:20.340Z,1005.09
2023-05-09T09:26:20.347Z,1005.10
2023-05-09T09:27:20.352Z,1005.06
2023-05-09T09:28:20.332Z,1005.05
2023-05-09T09:29:20.299Z,1005.05
2023-05-09T09:30:20.411Z,1005.04
2023-05-09T09:31:20.466Z,1005.03
2023-05-09T09:32:20.326Z,1005.03
2023-05-09T09:33:20.275Z,1005.00
2023-05-09T09:34:20.286Z,1004.98
2023-05-09T09:35:20.273Z,1004.93
2023-05-09T09:36:20.231Z,1004.96
2023-05-09T09:37:20.221Z,1004.92
2023-05-09T09:38:20.232Z,1004.90
2023-05-09T09:39:20.195Z,1004.84
2023-05-09T09:40:20.266Z,1004.90
2023-05-09T09:41:20.181Z,1004.86
2023-05-09T09:42:20.194Z,1004.84
2023-05-09T09:43:20.169Z,1004.87
2023-05-09T09:44:20.179Z,1004.90
2023-05-09T09:45:20.277Z,1004.87
2023-05-09T09:46:20.214Z,1004.82
2023-05-09T09:47:20.100Z,1004.83
2023-05-09T09:48:20.101Z,1004.83
2023-05-09T09:49:20.068Z,1004.82
2023-05-09T09:50:20.235Z,1004.78
2023-05-09T09:51:20.079Z,1004.78
2023-05-09T09:52:20.044Z,1004.74
2023-05-09T09:53:20.081Z,1004.71
2023-05-09T09:54:20.070Z,1004.67
2023-05-09T09:55:20.033Z,1004.72
2023-05-09T09:56:20.021Z,1004.74
2023-05-09T09:57:20.009Z,1004.74
2023-05-09T09:58:20.008Z,1004.74
2023-05-09T09:59:20.041Z,1004.68
2023-05-09T10:00:19.972Z,1004.73
2023-05-09T10:01:19.986Z,1004.71
2023-05-09T10:02:20.029Z,1004.66
2023-05-09T10:03:20.064Z,1004.69
2023-05-09T10:04:19.946Z,1004.70
2023-05-09T10:05:19.919Z,1004.70
2023-05-09T10:06:19.950Z,1004.66
2023-05-09T10:07:19.926Z,1004.65
2023-05-09T10:08:19.917Z,1004.62
2023-05-09T10:09:19.901Z,1004.59
2023-05-09T10:10:19.936Z,1004.55
2023-05-09T10:11:19.916Z,1004.58
2023-05-09T10:12:19.917Z,1004.58
2023-05-09T10:13:19.893Z,1004.59
2023-05-09T10:14:19.894Z,1004.57
2023-05-09T10:15:19.856Z,1004.52
2023-05-09T10:16:25.930Z,1004.48
2023-05-09T10:17:20.910Z,1004.52
2023-05-09T10:18:20.190Z,1004.51
2023-05-09T10:19:19.782Z,1004.53
2023-05-09T10:20:19.775Z,1004.47
2023-05-09T10:21:19.756Z,1004.49
2023-05-09T10:22:19.770Z,1004.48
2023-05-09T10:23:19.752Z,1004.49
2023-05-09T10:24:19.722Z,1004.39
2023-05-09T10:25:19.799Z,1004.41
2023-05-09T10:26:19.711Z,1004.36
2023-05-09T10:27:19.694Z,1004.39
2023-05-09T10:28:19.689Z,1004.36
2023-05-09T10:29:19.672Z,1004.31
2023-05-09T10:30:19.669Z,1004.28
2023-05-09T10:31:19.675Z,1004.31
2023-05-09T10:32:19.647Z,1004.25
2023-05-09T10:33:19.641Z,1004.25
2023-05-09T10:34:19.626Z,1004.25
2023-05-09T10:35:19.657Z,1004.26
2023-05-09T10:36:19.603Z,1004.10
2023-05-09T10:37:20.620Z,1004.11
2023-05-09T10:38:19.589Z,1004.12
2023-05-09T10:39:19.561Z,1004.21
2023-05-09T10:40:19.756Z,1004.13
2023-05-09T10:41:19.543Z,1004.14
2023-05-09T10:42:19.538Z,1004.12
2023-05-09T10:43:19.527Z,1004.14
2023-05-09T10:44:19.521Z,1004.13
2023-05-09T10:45:19.521Z,1004.06
2023-05-09T10:46:19.539Z,1004.04
2023-05-09T10:47:19.567Z,1004.04
2023-05-09T10:48:19.518Z,1004.06
2023-05-09T10:49:19.465Z,1004.02
2023-05-09T10:50:19.461Z,1004.01
2023-05-09T10:51:19.437Z,1004.01
2023-05-09T10:52:19.426Z,1003.96
2023-05-09T10:53:19.427Z,1004.00
2023-05-09T10:54:19.408Z,1003.94
2023-05-09T10:55:19.398Z,1003.94
2023-05-09T10:56:19.389Z,1003.92
2023-05-09T10:57:19.374Z,1003.79
2023-05-09T10:58:19.356Z,1003.90
2023-05-09T10:59:19.338Z,1003.90
2023-05-09T11:00:19.343Z,1003.93
2023-05-09T11:01:19.357Z,1003.76
2023-05-09T11:02:19.368Z,1003.81
2023-05-09T11:03:19.440Z,1003.81
2023-05-09T11:04:19.344Z,1003.78
2023-05-09T11:05:19.320Z,1003.80
2023-05-09T11:06:19.267Z,1003.76
2023-05-09T11:07:19.280Z,1003.70
2023-05-09T11:08:19.262Z,1003.66
2023-05-09T11:09:19.244Z,1003.64
2023-05-09T11:10:19.261Z,1003.66
2023-05-09T11:11:19.209Z,1003.61
2023-05-09T11:12:19.223Z,1003.64
2023-05-09T11:13:19.290Z,1003.58
2023-05-09T11:14:19.200Z,1003.59
2023-05-09T11:15:19.176Z,1003.57
2023-05-09T11:16:19.181Z,1003.52
2023-05-09T11:17:19.157Z,1003.45
2023-05-09T11:18:19.152Z,1003.46
2023-05-09T11:19:19.119Z,1003.47
2023-05-09T11:20:19.146Z,1003.42
2023-05-09T11:21:19.101Z,1003.50
2023-05-09T11:22:19.120Z,1003.45
2023-05-09T11:23:19.119Z,1003.44
2023-05-09T11:24:19.156Z,1003.54
2023-05-09T11:25:19.110Z,1003.48
2023-05-09T11:26:19.065Z,1003.42
2023-05-09T11:27:19.048Z,1003.46
2023-05-09T11:28:19.064Z,1003.42
2023-05-09T11:29:19.051Z,1003.40
2023-05-09T11:30:19.066Z,1003.44
2023-05-09T11:31:19.162Z,1003.42
2023-05-09T11:32:19.017Z,1003.40
2023-05-09T11:33:18.996Z,1003.33
2023-05-09T11:34:18.980Z,1003.38
2023-05-09T11:35:19.163Z,1003.26
2023-05-09T11:36:18.962Z,1003.32
2023-05-09T11:37:18.928Z,1003.29
2023-05-09T11:38:18.941Z,1003.31
2023-05-09T11:39:18.938Z,1003.24
2023-05-09T11:40:18.955Z,1003.19
2023-05-09T11:41:18.888Z,1003.22
2023-05-09T11:42:19.020Z,1003.21
2023-05-09T11:43:18.928Z,1003.18
2023-05-09T11:44:18.891Z,1003.17
2023-05-09T11:45:18.881Z,1003.20
2023-05-09T11:46:18.903Z,1003.16
2023-05-09T11:47:18.840Z,1003.10
2023-05-09T11:48:18.871Z,1003.09
2023-05-09T11:49:18.820Z,1003.14
2023-05-09T11:50:18.819Z,1003.12
2023-05-09T11:51:18.807Z,1003.06
2023-05-09T11:52:18.812Z,1003.14
2023-05-09T11:53:18.811Z,1003.05
2023-05-09T11:54:18.804Z,1003.02
2023-05-09T11:55:19.370Z,1003.00
2023-05-09T11:56:18.782Z,1003.00
2023-05-09T11:57:18.760Z,1003.03
2023-05-09T11:58:18.752Z,1003.00
2023-05-09T11:59:18.725Z,1002.95
2023-05-09T12:00:18.751Z,1002.96
2023-05-09T12:01:18.715Z,1002.94
2023-05-09T12:02:18.739Z,1002.89
2023-05-09T12:03:18.851Z,1002.88
2023-05-09T12:04:18.773Z,1002.83
2023-05-09T12:05:18.740Z,1002.83
2023-05-09T12:06:18.755Z,1002.76